Historique des mesures à Cassis (13260), France
Quotidien Résumé Mai 7, 2017 Unités:  US    Métrique   Métrique/US
« Précédent (Jour)
Suivant (Jour) »
Quotidien Hebdomadaire Mensuel Annuel Période au choix
  Maximum: Minimum: Moyenne:
Température: 32 °F 57.6 °F 62.1 °F
Point de rosée: 32 °F 44.1 °F 45 °F
Humidité: Humidity % 40 % 51 %
Vitesse du vent: WindSpeedKMH mph 6.4 mph 18.1 mph
Rafales: WindSpeedGustKMH mph - -
Vent:- - SSW
Pression: 0 in 29.8 in -
Précipitations: 0 in    
Historical Graphs
 
 
Mesures pour : Mai 7, 2017
Heure Temperature Point de rosée Pression Vent Vitesse du vent Rafales Humidité Pluie (par heure) Conditions
32 °F 32 °F 0 in Calm     Humidity % 0 in SoftwareType W/m2
00:10 59.2 °F 47.5 °F 29.9 in NW 20.9 mph 20.9 mph 65 % 0 in open2300-1.11 W/m2
01:11 58.3 °F 47.7 °F 29.9 in WNW 14.3 mph 16.9 mph 68 % 0 in open2300-1.11 W/m2
02:10 58.1 °F 47.1 °F 29.9 in ENE 6.4 mph 10.5 mph 67 % 0 in open2300-1.11 W/m2
03:10 59 °F 46.4 °F 29.9 in NNW 13.4 mph 36.0 mph 63 % 0 in open2300-1.11 W/m2
04:10 58.1 °F 46 °F 29.9 in NW 19.8 mph 23.0 mph 64 % 0 in open2300-1.11 W/m2
05:11 58.1 °F 45.1 °F 29.9 in NNE 18.7 mph 18.7 mph 62 % 0 in open2300-1.11 W/m2
06:10 57.7 °F 45.1 °F 29.9 in NNW 7.9 mph 12.2 mph 63 % 0 in open2300-1.11 W/m2
07:10 57.6 °F 44.2 °F 29.9 in North 14.3 mph 18.3 mph 61 % 0 in open2300-1.11 W/m2
08:10 59.9 °F 44.6 °F 29.9 in North 11.1 mph 20.6 mph 57 % 0 in open2300-1.11 W/m2
09:10 59.4 °F 44.1 °F 29.9 in NNW 21.2 mph 21.2 mph 57 % 0 in open2300-1.11 W/m2
10:11 60.6 °F 45.3 °F 29.9 in NNW 12.6 mph 19.1 mph 57 % 0 in open2300-1.11 W/m2
11:10 64.2 °F 44.6 °F 29.9 in NNE 23.0 mph 27.7 mph 49 % 0 in open2300-1.11 W/m2
12:10 65.7 °F 44.8 °F 29.9 in NE 16.6 mph 31.4 mph 47 % 0 in open2300-1.11 W/m2
13:10 67.1 °F 45.5 °F 29.9 in NNW 28.8 mph 53.3 mph 46 % 0 in open2300-1.11 W/m2
14:10 68.5 °F 45.7 °F 29.9 in North 29.4 mph 42.5 mph 44 % 0 in open2300-1.11 W/m2
15:10 69.4 °F 46.6 °F 29.8 in NW 25.9 mph 29.4 mph 44 % 0 in open2300-1.11 W/m2
16:10 70 °F 45.9 °F 29.8 in North 16.6 mph 45.1 mph 42 % 0 in open2300-1.11 W/m2
17:10 70.2 °F 45.9 °F 29.8 in NW 14.8 mph 16.9 mph 42 % 0 in open2300-1.11 W/m2
18:10 70.2 °F 45.3 °F 29.8 in NNE 19.1 mph 20.9 mph 41 % 0 in open2300-1.11 W/m2
19:10 69.4 °F 44.1 °F 29.8 in NNW 18.0 mph 34.6 mph 40 % 0 in open2300-1.11 W/m2
20:10 67.1 °F 44.4 °F 29.8 in NNW 30.6 mph 30.6 mph 44 % 0 in open2300-1.11 W/m2
21:10 65.1 °F 45 °F 29.8 in NW 18.7 mph 43.1 mph 48 % 0 in open2300-1.11 W/m2
22:10 63.3 °F 45.9 °F 29.8 in NW 22.4 mph 46.5 mph 53 % 0 in open2300-1.11 W/m2
23:10 62.2 °F 45.3 °F 29.8 in North 29.1 mph 34.1 mph 54 % 0 in open2300-1.11 W/m2
Observations météo à CASSIS
WU-History script by Weather Underground - 1 mb